createdAt,value
2018-09-03T00:00:25.924Z,98422.05
2018-09-03T00:02:54.873Z,98416.33
2018-09-03T00:05:23.731Z,98416.22
2018-09-03T00:07:52.847Z,98415.28
2018-09-03T00:10:22.493Z,98413.84
2018-09-03T00:12:51.474Z,98409.80
2018-09-03T00:15:20.445Z,98410.17
2018-09-03T00:17:49.435Z,98411.55
2018-09-03T00:20:18.460Z,98414.56
2018-09-03T00:22:47.524Z,98420.06
2018-09-03T00:25:16.542Z,98407.80
2018-09-03T00:27:45.598Z,98421.66
2018-09-03T00:30:14.652Z,98423.94
2018-09-03T00:32:48.940Z,98439.56
2018-09-03T00:42:17.215Z,98464.23
2018-09-03T00:45:53.885Z,98470.01
2018-09-03T00:48:22.302Z,98469.21
2018-09-03T00:50:50.692Z,98467.79
2018-09-03T00:53:19.128Z,98473.58
2018-09-03T00:55:47.580Z,98483.49
2018-09-03T00:58:16.181Z,98481.42
2018-09-03T01:00:44.704Z,98477.51
2018-09-03T01:03:13.128Z,98480.00
2018-09-03T01:05:41.548Z,98489.38
2018-09-03T01:08:10.071Z,98485.20
2018-09-03T01:10:38.553Z,98478.13
2018-09-03T01:13:06.930Z,98470.27
2018-09-03T01:15:35.349Z,98462.58
2018-09-03T01:18:03.740Z,98462.27
2018-09-03T01:20:32.626Z,98461.20
2018-09-03T01:23:01.046Z,98457.43
2018-09-03T01:25:29.435Z,98450.44
2018-09-03T01:27:57.820Z,98453.97
2018-09-03T01:30:26.246Z,98444.95
2018-09-03T01:32:54.612Z,98446.71
2018-09-03T01:35:23.035Z,98442.67
2018-09-03T01:37:51.425Z,98436.34
2018-09-03T01:40:19.826Z,98440.90
2018-09-03T01:42:48.200Z,98441.50
2018-09-03T01:45:16.611Z,98439.45
2018-09-03T01:47:44.978Z,98434.60
2018-09-03T01:50:13.393Z,98431.16
2018-09-03T01:52:41.835Z,98428.86
2018-09-03T01:55:10.219Z,98429.92
2018-09-03T01:57:38.571Z,98429.61
2018-09-03T02:00:07.706Z,98427.16
2018-09-03T02:02:36.152Z,98427.08
2018-09-03T02:05:04.629Z,98433.87
2018-09-03T02:07:33.062Z,98435.77
2018-09-03T02:10:01.467Z,98422.40
2018-09-03T02:12:29.888Z,98417.11
2018-09-03T02:14:58.294Z,98413.47
2018-09-03T02:17:26.829Z,98415.81
2018-09-03T02:19:55.215Z,98415.36
2018-09-03T02:22:23.661Z,98414.73
2018-09-03T02:24:52.072Z,98409.73
2018-09-03T02:27:20.533Z,98405.80
2018-09-03T02:29:48.965Z,98405.80
2018-09-03T02:32:17.334Z,98400.47
2018-09-03T02:34:45.713Z,98403.08
2018-09-03T02:37:14.222Z,98398.49
2018-09-03T02:39:42.595Z,98407.09
2018-09-03T02:42:11.015Z,98409.06
2018-09-03T02:44:39.431Z,98411.73
2018-09-03T02:47:07.857Z,98406.39
2018-09-03T02:49:36.697Z,98405.24
2018-09-03T02:52:05.221Z,98401.34
2018-09-03T02:54:33.644Z,98406.39
2018-09-03T02:57:02.656Z,98397.97
2018-09-03T02:59:31.134Z,98402.67
2018-09-03T03:01:59.516Z,98412.80
2018-09-03T03:04:28.212Z,98394.89
2018-09-03T03:06:56.629Z,98390.89
2018-09-03T03:09:25.052Z,98382.61
2018-09-03T03:11:53.671Z,98380.98
2018-09-03T03:14:22.059Z,98375.34
2018-09-03T03:16:50.453Z,98368.38
2018-09-03T03:19:18.948Z,98375.69
2018-09-03T03:21:47.393Z,98372.57
2018-09-03T03:24:15.791Z,98373.06
2018-09-03T03:26:44.176Z,98377.02
2018-09-03T03:29:12.660Z,98373.19
2018-09-03T03:31:41.065Z,98371.02
2018-09-03T03:34:09.512Z,98368.27
2018-09-03T03:36:37.917Z,98377.50
2018-09-03T03:39:07.756Z,98373.61
2018-09-03T03:41:36.480Z,98365.30
2018-09-03T03:44:05.202Z,98366.75
2018-09-03T03:46:33.806Z,98359.40
2018-09-03T03:49:02.432Z,98364.33
2018-09-03T03:51:30.832Z,98359.88
2018-09-03T03:53:59.468Z,98352.38
2018-09-03T03:56:27.866Z,98355.64
2018-09-03T03:58:56.421Z,98352.48
2018-09-03T04:01:25.063Z,98351.23
2018-09-03T04:03:53.537Z,98345.63
2018-09-03T04:06:21.951Z,98341.41
2018-09-03T04:08:50.360Z,98341.91
2018-09-03T04:11:18.747Z,98344.77
2018-09-03T04:13:47.283Z,98346.73
2018-09-03T04:16:15.754Z,98342.45
2018-09-03T04:18:44.203Z,98341.05
2018-09-03T04:21:12.593Z,98344.32
2018-09-03T04:23:40.997Z,98345.80
2018-09-03T04:26:09.450Z,98348.08
2018-09-03T04:28:37.879Z,98353.47
2018-09-03T04:31:06.333Z,98351.09
2018-09-03T04:33:34.709Z,98355.36
2018-09-03T04:36:03.611Z,98358.55
2018-09-03T04:38:32.240Z,98360.34
2018-09-03T04:41:00.650Z,98353.73
2018-09-03T04:43:29.128Z,98352.98
2018-09-03T04:45:58.103Z,98353.76
2018-09-03T04:48:26.644Z,98352.20
2018-09-03T04:50:55.079Z,98350.65
2018-09-03T04:53:23.530Z,98347.41
2018-09-03T04:55:52.036Z,98350.23
2018-09-03T04:58:20.603Z,98355.16
2018-09-03T05:00:49.178Z,98354.73
2018-09-03T05:03:17.585Z,98353.66
2018-09-03T05:05:46.378Z,98357.72
2018-09-03T05:08:14.782Z,98349.68
2018-09-03T05:10:43.260Z,98346.36
2018-09-03T05:13:11.721Z,98358.13
2018-09-03T05:15:40.163Z,98356.80
2018-09-03T05:18:08.605Z,98352.77
2018-09-03T05:20:37.162Z,98352.42
2018-09-03T05:23:06.047Z,98360.89
2018-09-03T05:25:34.563Z,98363.20
2018-09-03T05:28:02.918Z,98363.83
2018-09-03T05:30:31.650Z,98362.18
2018-09-03T05:33:00.081Z,98364.64
2018-09-03T05:35:28.536Z,98377.25
2018-09-03T05:37:56.903Z,98378.44
2018-09-03T05:40:25.300Z,98371.91
2018-09-03T05:42:53.684Z,98373.62
2018-09-03T05:45:22.266Z,98370.09
2018-09-03T05:47:50.655Z,98376.48
2018-09-03T05:50:19.188Z,98372.49
2018-09-03T05:52:47.671Z,98368.47
2018-09-03T05:55:16.117Z,98371.80
2018-09-03T05:57:44.699Z,98370.30
2018-09-03T06:00:13.247Z,98362.34
2018-09-03T06:02:41.748Z,98363.91
2018-09-03T06:05:10.198Z,98365.16
2018-09-03T06:07:40.201Z,98366.55
2018-09-03T06:10:08.694Z,98363.88
2018-09-03T06:12:37.267Z,98368.42
2018-09-03T06:15:05.977Z,98372.23
2018-09-03T06:17:34.412Z,98372.61
2018-09-03T06:20:02.983Z,98367.16
2018-09-03T06:22:31.342Z,98372.29
2018-09-03T06:24:59.804Z,98368.33
2018-09-03T06:27:28.218Z,98367.11
2018-09-03T06:29:56.602Z,98367.12
2018-09-03T06:32:25.278Z,98365.02
2018-09-03T06:34:53.727Z,98368.27
2018-09-03T06:37:22.302Z,98372.88
2018-09-03T06:39:50.699Z,98364.46
2018-09-03T06:42:19.101Z,98364.81
2018-09-03T06:44:47.679Z,98372.65
2018-09-03T06:47:16.138Z,98366.28
2018-09-03T06:49:45.483Z,98369.86
2018-09-03T06:52:14.345Z,98371.41
2018-09-03T06:54:43.805Z,98372.48
2018-09-03T06:57:12.166Z,98373.70
2018-09-03T06:59:40.646Z,98371.98
2018-09-03T07:02:09.239Z,98366.72
2018-09-03T07:04:37.924Z,98376.23
2018-09-03T07:07:06.982Z,98371.18
2018-09-03T07:09:36.410Z,98370.22
2018-09-03T07:12:04.785Z,98370.42
2018-09-03T07:14:33.219Z,98373.73
2018-09-03T07:17:01.709Z,98367.36
2018-09-03T07:19:30.321Z,98359.56
2018-09-03T07:21:59.127Z,98357.47
2018-09-03T07:24:27.599Z,98358.57
2018-09-03T07:26:56.045Z,98352.98
2018-09-03T07:29:24.489Z,98350.11
2018-09-03T07:31:52.869Z,98342.38
2018-09-03T07:34:21.221Z,98346.49
2018-09-03T07:36:49.594Z,98350.41
2018-09-03T07:39:17.929Z,98347.72
2018-09-03T07:41:46.343Z,98350.80
2018-09-03T07:44:14.943Z,98354.61
2018-09-03T07:46:43.347Z,98350.47
2018-09-03T07:49:11.860Z,98357.05
2018-09-03T07:51:40.235Z,98356.65
2018-09-03T07:54:08.612Z,98352.98
2018-09-03T07:56:37.006Z,98351.67
2018-09-03T07:59:05.676Z,98348.39
2018-09-03T08:01:34.068Z,98356.73
2018-09-03T08:04:02.569Z,98360.27
2018-09-03T08:06:31.167Z,98364.38
2018-09-03T08:08:59.615Z,98365.89
2018-09-03T08:11:27.982Z,98369.46
2018-09-03T08:13:56.336Z,98372.70
2018-09-03T08:16:24.784Z,98374.61
2018-09-03T08:18:53.208Z,98374.12
2018-09-03T08:21:21.812Z,98374.91
2018-09-03T08:23:50.234Z,98377.08
2018-09-03T08:26:19.409Z,98374.45
2018-09-03T08:28:48.401Z,98371.84
2018-09-03T08:31:16.809Z,98371.29
2018-09-03T08:33:46.009Z,98367.50
2018-09-03T08:36:14.659Z,98365.58
2018-09-03T08:38:43.067Z,98372.63
2018-09-03T08:41:11.447Z,98370.30
2018-09-03T08:43:40.534Z,98371.09
2018-09-03T08:46:08.994Z,98366.03
2018-09-03T08:48:37.409Z,98374.78
2018-09-03T08:51:05.884Z,98370.87
2018-09-03T08:53:34.538Z,98366.94
2018-09-03T08:56:03.018Z,98364.70
2018-09-03T08:58:31.737Z,98363.30
2018-09-03T09:01:00.150Z,98363.49
2018-09-03T09:03:34.183Z,98358.59
2018-09-03T09:06:02.608Z,98358.83
2018-09-03T09:08:31.208Z,98352.33
2018-09-03T09:10:59.672Z,98356.45
2018-09-03T09:13:28.093Z,98355.70
2018-09-03T09:15:56.495Z,98353.27
2018-09-03T09:18:24.896Z,98352.65
2018-09-03T09:20:53.389Z,98356.05
2018-09-03T09:23:21.804Z,98347.87
2018-09-03T09:25:50.288Z,98352.16
2018-09-03T09:28:18.727Z,98351.89
2018-09-03T09:30:47.152Z,98346.94
2018-09-03T09:33:16.125Z,98346.82
2018-09-03T09:35:45.196Z,98340.84
2018-09-03T09:38:13.606Z,98348.25
2018-09-03T09:40:42.079Z,98343.72
2018-09-03T09:43:10.806Z,98347.87
2018-09-03T09:45:38.959Z,98342.40
2018-09-03T09:48:07.386Z,98328.95
2018-09-03T09:50:35.815Z,98329.56
2018-09-03T09:53:04.289Z,98346.89
2018-09-03T09:55:32.882Z,98339.89
2018-09-03T09:58:01.260Z,98344.12
2018-09-03T10:00:34.788Z,98340.94
2018-09-03T10:03:03.245Z,98333.88
2018-09-03T10:05:31.696Z,98341.30
2018-09-03T10:08:00.050Z,98333.52
2018-09-03T10:10:28.422Z,98338.27
2018-09-03T10:12:56.883Z,98339.11
2018-09-03T10:15:25.310Z,98334.64
2018-09-03T10:17:54.572Z,98331.03
2018-09-03T10:20:23.000Z,98338.67
2018-09-03T10:22:51.561Z,98340.37
2018-09-03T10:25:19.910Z,98336.47
2018-09-03T10:27:48.505Z,98342.94
2018-09-03T10:30:16.969Z,98342.58
2018-09-03T10:32:45.457Z,98345.84
2018-09-03T10:35:14.036Z,98345.44
2018-09-03T10:37:42.433Z,98334.54
2018-09-03T10:40:10.830Z,98344.84
2018-09-03T10:42:39.224Z,98334.14
2018-09-03T10:45:08.353Z,98336.89
2018-09-03T10:47:36.947Z,98337.80
2018-09-03T10:50:05.610Z,98330.38
2018-09-03T10:52:34.786Z,98332.39
2018-09-03T10:55:03.184Z,98334.66
2018-09-03T10:57:31.654Z,98334.59
2018-09-03T11:00:00.112Z,98322.30
2018-09-03T11:02:29.208Z,98327.83
2018-09-03T11:04:57.702Z,98328.63
2018-09-03T11:07:26.133Z,98322.10
2018-09-03T11:09:55.097Z,98323.75
2018-09-03T11:12:23.529Z,98324.72
2018-09-03T11:14:52.042Z,98330.06
2018-09-03T11:17:20.451Z,98329.71
2018-09-03T11:19:53.337Z,98322.42
2018-09-03T11:22:21.800Z,98323.52
2018-09-03T11:24:50.381Z,98325.22
2018-09-03T11:27:18.803Z,98329.56
2018-09-03T11:29:47.217Z,98326.39
2018-09-03T11:32:15.662Z,98320.39
2018-09-03T11:34:44.059Z,98319.11
2018-09-03T11:37:12.578Z,98315.45
2018-09-03T11:39:41.001Z,98317.05
2018-09-03T11:42:09.473Z,98319.72
2018-09-03T11:44:38.391Z,98323.59
2018-09-03T11:47:07.126Z,98324.80
2018-09-03T11:49:35.565Z,98323.02
2018-09-03T11:52:03.992Z,98320.95
2018-09-03T11:54:32.584Z,98321.84
2018-09-03T11:57:00.898Z,98326.36
2018-09-03T11:59:29.505Z,98321.78
2018-09-03T12:01:57.804Z,98328.31
2018-09-03T12:04:26.201Z,98317.21
2018-09-03T12:06:54.538Z,98323.67
2018-09-03T12:09:22.892Z,98325.63
2018-09-03T12:11:51.271Z,98324.14
2018-09-03T12:14:26.558Z,98324.63
2018-09-03T12:16:55.088Z,98319.58
2018-09-03T12:19:23.498Z,98315.41
2018-09-03T12:21:51.876Z,98308.31
2018-09-03T12:24:20.839Z,98308.91
2018-09-03T12:26:49.273Z,98303.61
2018-09-03T12:29:17.732Z,98308.94
2018-09-03T12:31:46.193Z,98305.66
2018-09-03T12:34:14.590Z,98312.02
2018-09-03T12:36:43.069Z,98309.98
2018-09-03T12:39:11.687Z,98309.13
2018-09-03T12:41:40.242Z,98311.25
2018-09-03T12:44:08.670Z,98321.64
2018-09-03T12:46:37.111Z,98318.28
2018-09-03T12:49:05.473Z,98321.30
2018-09-03T12:51:33.838Z,98326.23
2018-09-03T12:54:02.306Z,98320.83
2018-09-03T12:56:30.917Z,98319.94
2018-09-03T12:58:59.312Z,98313.76
2018-09-03T13:01:28.410Z,98310.25
2018-09-03T13:03:56.801Z,98305.81
2018-09-03T13:06:25.136Z,98298.98
2018-09-03T13:08:53.518Z,98299.78
2018-09-03T13:11:21.939Z,98298.00
2018-09-03T13:13:50.323Z,98293.44
2018-09-03T13:16:18.743Z,98289.06
2018-09-03T13:18:47.173Z,98288.27
2018-09-03T13:21:15.539Z,98288.06
2018-09-03T13:23:44.528Z,98292.30
2018-09-03T13:26:12.921Z,98289.73
2018-09-03T13:28:41.327Z,98286.97
2018-09-03T13:31:09.716Z,98278.02
2018-09-03T13:33:38.138Z,98269.45
2018-09-03T13:36:06.605Z,98268.77
2018-09-03T13:38:35.134Z,98268.61
2018-09-03T13:41:03.587Z,98258.61
2018-09-03T13:43:31.972Z,98258.66
2018-09-03T13:46:00.512Z,98247.80
2018-09-03T13:48:28.848Z,98251.41
2018-09-03T13:50:57.235Z,98246.10
2018-09-03T13:53:25.621Z,98246.05
2018-09-03T13:55:54.052Z,98244.05
2018-09-03T13:58:22.399Z,98252.07
2018-09-03T14:00:51.022Z,98243.63
2018-09-03T14:03:19.358Z,98247.92
2018-09-03T14:05:48.243Z,98249.55
2018-09-03T14:08:16.851Z,98250.91
2018-09-03T14:10:45.269Z,98241.32
2018-09-03T14:13:13.772Z,98238.48
2018-09-03T14:15:42.384Z,98236.31
2018-09-03T14:18:10.908Z,98232.61
2018-09-03T14:20:39.342Z,98229.66
2018-09-03T14:23:07.830Z,98230.04
2018-09-03T14:25:36.406Z,98230.83
2018-09-03T14:28:04.766Z,98223.02
2018-09-03T14:30:33.906Z,98223.06
2018-09-03T14:33:02.882Z,98221.22
2018-09-03T14:35:31.317Z,98222.41
2018-09-03T14:37:59.743Z,98223.02
2018-09-03T14:40:28.225Z,98224.06
2018-09-03T14:42:56.618Z,98227.77
2018-09-03T14:45:25.139Z,98218.63
2018-09-03T14:47:53.476Z,98223.26
2018-09-03T14:50:22.419Z,98219.33
2018-09-03T14:52:51.579Z,98218.94
2018-09-03T14:55:20.441Z,98225.07
2018-09-03T14:57:48.867Z,98228.13
2018-09-03T15:00:17.218Z,98223.86
2018-09-03T15:02:45.660Z,98226.16
2018-09-03T15:05:14.010Z,98221.19
2018-09-03T15:07:42.403Z,98229.00
2018-09-03T15:10:11.276Z,98219.05
2018-09-03T15:12:39.678Z,98223.27
2018-09-03T15:15:08.391Z,98222.75
2018-09-03T15:17:36.716Z,98222.34
2018-09-03T15:20:05.863Z,98224.52
2018-09-03T15:22:34.270Z,98230.83
2018-09-03T15:25:02.901Z,98223.83
2018-09-03T15:27:31.291Z,98226.05
2018-09-03T15:29:59.713Z,98219.21
2018-09-03T15:32:29.191Z,98217.23
2018-09-03T15:34:57.538Z,98223.91
2018-09-03T15:37:25.911Z,98228.91
2018-09-03T15:39:54.434Z,98218.17
2018-09-03T15:42:22.885Z,98223.08
2018-09-03T15:44:51.355Z,98209.95
2018-09-03T15:47:19.766Z,98212.99
2018-09-03T15:49:48.185Z,98206.65
2018-09-03T15:52:16.693Z,98208.35
2018-09-03T15:54:45.134Z,98204.77
2018-09-03T15:57:13.629Z,98207.73
2018-09-03T15:59:42.184Z,98207.23
2018-09-03T16:02:10.610Z,98204.22
2018-09-03T16:04:39.029Z,98202.23
2018-09-03T16:07:07.637Z,98203.25
2018-09-03T16:09:36.180Z,98203.89
2018-09-03T16:12:04.581Z,98207.28
2018-09-03T16:14:33.000Z,98206.72
2018-09-03T16:17:01.488Z,98211.09
2018-09-03T16:19:29.902Z,98202.01
2018-09-03T16:21:58.409Z,98204.59
2018-09-03T16:24:26.843Z,98202.83
2018-09-03T16:26:55.228Z,98203.06
2018-09-03T16:29:23.653Z,98202.03
2018-09-03T16:31:52.103Z,98200.28
2018-09-03T16:34:20.448Z,98194.52
2018-09-03T16:36:48.827Z,98198.02
2018-09-03T16:39:17.353Z,98199.78
2018-09-03T16:41:46.016Z,98199.42
2018-09-03T16:44:14.361Z,98205.00
2018-09-03T16:46:42.753Z,98200.30
2018-09-03T16:49:11.226Z,98203.09
2018-09-03T16:51:39.849Z,98211.18
2018-09-03T16:54:08.637Z,98211.78
2018-09-03T16:56:37.087Z,98210.98
2018-09-03T16:59:05.487Z,98214.33
2018-09-03T17:01:34.090Z,98210.06
2018-09-03T17:04:02.246Z,98210.21
2018-09-03T17:06:30.705Z,98218.11
2018-09-03T17:08:59.134Z,98217.60
2018-09-03T17:11:27.657Z,98217.41
2018-09-03T17:13:56.101Z,98218.08
2018-09-03T17:16:24.905Z,98219.06
2018-09-03T17:18:53.723Z,98216.61
2018-09-03T17:21:22.267Z,98215.49
2018-09-03T17:23:50.676Z,98220.62
2018-09-03T17:26:19.317Z,98220.19
2018-09-03T17:28:47.703Z,98221.89
2018-09-03T17:31:16.165Z,98221.18
2018-09-03T17:33:44.847Z,98220.34
2018-09-03T17:36:13.337Z,98226.59
2018-09-03T17:38:41.998Z,98228.55
2018-09-03T17:41:10.402Z,98224.53
2018-09-03T17:43:38.866Z,98221.21
2018-09-03T17:46:07.268Z,98230.47
2018-09-03T17:48:35.757Z,98227.44
2018-09-03T17:51:04.234Z,98229.58
2018-09-03T17:53:32.659Z,98232.77
2018-09-03T17:56:01.124Z,98228.67
2018-09-03T17:58:29.712Z,98230.91
2018-09-03T18:00:58.285Z,98225.71
2018-09-03T18:03:26.725Z,98222.78
2018-09-03T18:05:55.222Z,98226.06
2018-09-03T18:08:23.702Z,98237.58
2018-09-03T18:10:52.099Z,98231.50
2018-09-03T18:13:20.489Z,98235.45
2018-09-03T18:15:49.352Z,98238.36
2018-09-03T18:18:18.169Z,98229.81
2018-09-03T18:20:46.669Z,98231.61
2018-09-03T18:23:15.093Z,98240.37
2018-09-03T18:25:43.502Z,98241.25
2018-09-03T18:28:12.726Z,98246.30
2018-09-03T18:30:41.204Z,98240.87
2018-09-03T18:33:09.629Z,98245.70
2018-09-03T18:35:38.007Z,98244.08
2018-09-03T18:38:06.490Z,98242.64
2018-09-03T18:40:34.962Z,98247.12
2018-09-03T18:43:03.344Z,98258.64
2018-09-03T18:45:31.789Z,98257.64
2018-09-03T18:48:00.392Z,98264.60
2018-09-03T18:50:28.814Z,98264.66
2018-09-03T18:52:57.223Z,98266.52
2018-09-03T18:55:25.849Z,98269.37
2018-09-03T18:57:54.229Z,98268.55
2018-09-03T19:00:22.727Z,98262.97
2018-09-03T19:02:51.125Z,98271.02
2018-09-03T19:05:20.089Z,98276.06
2018-09-03T19:07:48.629Z,98280.08
2018-09-03T19:10:18.435Z,98275.38
2018-09-03T19:12:46.885Z,98271.41
2018-09-03T19:15:15.446Z,98277.32
2018-09-03T19:17:43.837Z,98276.35
2018-09-03T19:20:12.230Z,98285.43
2018-09-03T19:22:40.658Z,98284.14
2018-09-03T19:25:09.097Z,98282.31
2018-09-03T19:27:37.580Z,98283.73
2018-09-03T19:30:06.015Z,98283.65
2018-09-03T19:32:34.437Z,98281.50
2018-09-03T19:35:03.021Z,98286.17
2018-09-03T19:37:31.574Z,98283.86
2018-09-03T19:40:00.016Z,98283.41
2018-09-03T19:42:29.477Z,98282.76
2018-09-03T19:44:58.104Z,98279.39
2018-09-03T19:47:26.523Z,98284.34
2018-09-03T19:49:54.917Z,98288.20
2018-09-03T19:52:23.376Z,98282.47
2018-09-03T19:54:51.823Z,98285.35
2018-09-03T19:57:20.212Z,98277.41
2018-09-03T19:59:48.888Z,98280.97
2018-09-03T20:02:17.410Z,98279.48
2018-09-03T20:04:45.886Z,98273.84
2018-09-03T20:07:14.799Z,98272.30
2018-09-03T20:09:43.318Z,98275.33
2018-09-03T20:12:11.842Z,98279.23
2018-09-03T20:14:40.256Z,98280.41
2018-09-03T20:17:08.683Z,98281.70
2018-09-03T20:19:37.504Z,98278.95
2018-09-03T20:22:11.798Z,98274.11
2018-09-03T20:24:40.675Z,98275.86
2018-09-03T20:27:09.129Z,98275.94
2018-09-03T20:29:37.543Z,98278.66
2018-09-03T20:32:05.989Z,98277.36
2018-09-03T20:34:34.384Z,98275.17
2018-09-03T20:37:03.121Z,98274.69
2018-09-03T20:39:31.518Z,98271.47
2018-09-03T20:41:59.923Z,98275.12
2018-09-03T20:44:28.389Z,98273.86
2018-09-03T20:46:56.790Z,98280.13
2018-09-03T20:49:25.420Z,98281.53
2018-09-03T20:51:53.917Z,98281.70
2018-09-03T20:54:23.368Z,98289.03
2018-09-03T20:56:51.840Z,98284.66
2018-09-03T20:59:20.855Z,98281.91
2018-09-03T21:01:49.298Z,98277.18
2018-09-03T21:04:17.839Z,98277.45
2018-09-03T21:06:46.363Z,98276.48
2018-09-03T21:09:14.828Z,98275.61
2018-09-03T21:11:43.272Z,98274.23
2018-09-03T21:14:11.681Z,98274.12
2018-09-03T21:16:40.112Z,98275.82
2018-09-03T21:19:08.526Z,98275.07
2018-09-03T21:21:36.984Z,98278.72
2018-09-03T21:24:05.466Z,98276.16
2018-09-03T21:26:33.875Z,98270.34
2018-09-03T21:29:02.312Z,98269.48
2018-09-03T21:31:30.748Z,98262.75
2018-09-03T21:33:59.168Z,98270.45
2018-09-03T21:36:27.785Z,98261.82
2018-09-03T21:38:56.225Z,98264.27
2018-09-03T21:41:24.676Z,98260.12
2018-09-03T21:43:53.073Z,98266.92
2018-09-03T21:46:21.625Z,98269.17
2018-09-03T21:48:50.108Z,98271.17
2018-09-03T21:51:18.486Z,98262.55
2018-09-03T21:53:46.955Z,98272.91
2018-09-03T21:56:15.476Z,98270.87
2018-09-03T21:58:43.970Z,98270.17
2018-09-03T22:01:12.438Z,98278.03
2018-09-03T22:03:40.892Z,98277.05
2018-09-03T22:06:09.299Z,98278.87
2018-09-03T22:08:38.063Z,98272.15
2018-09-03T22:11:06.728Z,98269.53
2018-09-03T22:13:35.109Z,98270.72
2018-09-03T22:16:03.530Z,98268.45
2018-09-03T22:18:32.191Z,98269.65
2018-09-03T22:21:00.723Z,98266.98
2018-09-03T22:23:29.124Z,98265.50
2018-09-03T22:25:57.596Z,98264.73
2018-09-03T22:28:26.031Z,98258.61
2018-09-03T22:30:54.418Z,98261.80
2018-09-03T22:33:22.818Z,98261.63
2018-09-03T22:35:51.197Z,98257.80
2018-09-03T22:38:19.615Z,98264.66
2018-09-03T22:40:48.046Z,98256.61
2018-09-03T22:43:16.529Z,98258.05
2018-09-03T22:45:44.963Z,98256.45
2018-09-03T22:48:13.463Z,98248.55
2018-09-03T22:50:41.862Z,98250.60
2018-09-03T22:53:10.263Z,98249.27
2018-09-03T22:55:38.689Z,98245.48
2018-09-03T22:58:07.099Z,98251.61
2018-09-03T23:00:35.552Z,98257.02
2018-09-03T23:03:03.968Z,98256.31
2018-09-03T23:05:32.395Z,98258.97
2018-09-03T23:08:00.842Z,98254.96
2018-09-03T23:10:29.291Z,98261.69
2018-09-03T23:12:57.923Z,98260.66
2018-09-03T23:15:26.368Z,98264.42
2018-09-03T23:17:54.797Z,98272.19
2018-09-03T23:20:23.254Z,98273.30
2018-09-03T23:22:51.684Z,98273.08
2018-09-03T23:25:20.245Z,98272.00
2018-09-03T23:27:48.743Z,98272.89
2018-09-03T23:30:17.260Z,98265.22
2018-09-03T23:32:45.663Z,98263.36
2018-09-03T23:35:14.071Z,98254.55
2018-09-03T23:37:42.569Z,98256.61
2018-09-03T23:40:11.342Z,98256.80
2018-09-03T23:42:39.818Z,98256.86
2018-09-03T23:45:08.291Z,98249.76
2018-09-03T23:47:36.719Z,98252.97
2018-09-03T23:50:05.208Z,98254.39
2018-09-03T23:52:33.602Z,98250.22
2018-09-03T23:55:02.096Z,98245.67
2018-09-03T23:57:30.483Z,98245.66
2018-09-03T23:59:58.960Z,98242.45
